Time;durP1;ratioP1;P1;durP2;ratioP2;P2;SDS_P1;SDS_P2;PMS_P1;PMS_P2;Temp;Humidity;BMP_temperature;BMP_pressure;BME280_temperature;BME280_humidity;BME280_pressure;Samples;Min_cycle;Max_cycle;Signal;HPM_P1;HPM_P2
2022/01/10 00:01:39;;;;;;;94.38;47.33;;;;;;;;;;6128433;23;20010;-70
2022/01/10 00:04:04;;;;;;;110.45;52.45;;;;;;;;;;6128224;23;20441;-70
2022/01/10 00:06:30;;;;;;;108.15;51.45;;;;;;;;;;6128267;23;20005;-71
2022/01/10 00:08:55;;;;;;;107.43;50.50;;;;;;;;;;6128324;23;19997;-71
2022/01/10 00:11:21;;;;;;;100.25;49.42;;;;;;;;;;6102515;23;20041;-70
2022/01/10 00:13:46;;;;;;;105.90;50.42;;;;;;;;;;6127801;23;20002;-70
2022/01/10 00:16:12;;;;;;;109.53;53.03;;;;;;;;;;6128282;23;20002;-70
2022/01/10 00:18:37;;;;;;;102.93;52.60;;;;;;;;;;6128450;23;20005;-70
2022/01/10 00:21:03;;;;;;;95.43;49.55;;;;;;;;;;6127859;23;20038;-70
2022/01/10 00:23:29;;;;;;;122.10;69.18;;;;;;;;;;6101773;23;20326;-70
2022/01/10 00:25:55;;;;;;;94.80;50.22;;;;;;;;;;6127954;23;20006;-70
2022/01/10 00:28:20;;;;;;;100.45;51.08;;;;;;;;;;6127803;23;20387;-70
2022/01/10 00:30:46;;;;;;;108.78;56.03;;;;;;;;;;6128153;23;20041;-71
2022/01/10 00:33:11;;;;;;;99.32;50.10;;;;;;;;;;6128020;23;20048;-70
2022/01/10 00:35:37;;;;;;;98.57;49.60;;;;;;;;;;6128012;23;20437;-70
2022/01/10 00:38:02;;;;;;;94.68;45.80;;;;;;;;;;6101900;23;20418;-71
2022/01/10 00:40:28;;;;;;;97.05;48.28;;;;;;;;;;6127412;23;20110;-71
2022/01/10 00:42:55;;;;;;;96.38;50.85;;;;;;;;;;6128101;23;20302;-69
2022/01/10 00:45:25;;;;;;;94.93;48.70;;;;;;;;;;6101977;23;20057;-69
2022/01/10 00:47:51;;;;;;;95.23;46.93;;;;;;;;;;6102072;23;19994;-69
2022/01/10 00:50:17;;;;;;;100.78;50.92;;;;;;;;;;6127916;23;20073;-69
2022/01/10 00:52:43;;;;;;;93.68;48.53;;;;;;;;;;6127883;23;20002;-68
2022/01/10 00:55:09;;;;;;;95.85;49.28;;;;;;;;;;6101877;23;20430;-70
2022/01/10 00:57:34;;;;;;;98.60;48.83;;;;;;;;;;6101772;23;20008;-67
2022/01/10 01:00:00;;;;;;;95.18;49.53;;;;;;;;;;6101657;23;20033;-67
2022/01/10 01:02:31;;;;;;;92.53;46.85;;;;;;;;;;6127590;23;20027;-67
2022/01/10 01:05:01;;;;;;;90.18;46.10;;;;;;;;;;6127813;23;20089;-68
2022/01/10 01:07:26;;;;;;;95.57;46.55;;;;;;;;;;6127130;23;20393;-68
2022/01/10 01:10:04;;;;;;;87.63;45.10;;;;;;;;;;6127707;23;20006;-68
2022/01/10 01:12:54;;;;;;;86.10;44.28;;;;;;;;;;6101724;23;20010;-71
2022/01/10 01:15:24;;;;;;;88.28;44.95;;;;;;;;;;6128078;23;20013;-68
2022/01/10 01:20:43;;;;;;;;;;;;;;;;;;6102088;23;20116;-68
2022/01/10 01:26:02;;;;;;;78.82;42.05;;;;;;;;;;6127691;23;20406;-71
2022/01/10 01:28:28;;;;;;;88.43;43.95;;;;;;;;;;6123485;23;20052;-71
2022/01/10 01:30:54;;;;;;;81.07;42.38;;;;;;;;;;6127642;23;20008;-71
2022/01/10 01:33:19;;;;;;;83.35;42.72;;;;;;;;;;6126058;23;20029;-71
2022/01/10 01:35:45;;;;;;;85.30;40.78;;;;;;;;;;6125808;23;20366;-71
2022/01/10 01:38:11;;;;;;;83.85;44.00;;;;;;;;;;6125695;23;19998;-71
2022/01/10 01:40:44;;;;;;;100.72;52.25;;;;;;;;;;6127041;23;20029;-71
2022/01/10 01:43:09;;;;;;;106.47;52.28;;;;;;;;;;6125795;23;20010;-71
2022/01/10 01:45:42;;;;;;;87.95;44.95;;;;;;;;;;6127239;23;19998;-71
2022/01/10 01:48:08;;;;;;;84.05;43.08;;;;;;;;;;6125876;23;20059;-71
2022/01/10 01:50:35;;;;;;;87.78;45.20;;;;;;;;;;6125792;23;20478;-70
2022/01/10 01:53:01;;;;;;;83.07;43.47;;;;;;;;;;6125480;23;20093;-70
2022/01/10 01:55:27;;;;;;;94.38;45.30;;;;;;;;;;6127111;23;20029;-71
2022/01/10 01:57:53;;;;;;;82.05;42.90;;;;;;;;;;6125782;23;20574;-70
2022/01/10 02:00:21;;;;;;;74.20;38.40;;;;;;;;;;6125394;23;20008;-71
2022/01/10 02:02:47;;;;;;;73.63;37.40;;;;;;;;;;6126726;23;20350;-72
2022/01/10 02:05:12;;;;;;;70.63;35.88;;;;;;;;;;6127711;23;19994;-72
2022/01/10 02:07:38;;;;;;;74.45;35.33;;;;;;;;;;6125864;23;20009;-71
2022/01/10 02:10:07;;;;;;;70.30;36.00;;;;;;;;;;6127157;23;20077;-72
2022/01/10 02:12:32;;;;;;;74.07;36.75;;;;;;;;;;6125624;23;20092;-71
2022/01/10 02:14:59;;;;;;;69.05;36.83;;;;;;;;;;6125569;23;20002;-71
2022/01/10 02:17:34;;;;;;;73.47;38.20;;;;;;;;;;6101642;23;20040;-72
2022/01/10 02:20:06;;;;;;;79.43;41.35;;;;;;;;;;6125912;23;20084;-71
2022/01/10 02:22:33;;;;;;;83.45;41.83;;;;;;;;;;6125379;23;20014;-71
2022/01/10 02:25:13;;;;;;;;;;;;;;;;;;6104793;23;20355;-72
2022/01/10 02:27:39;;;;;;;82.20;43.15;;;;;;;;;;6126102;23;19917;-72
2022/01/10 02:30:05;;;;;;;77.30;39.35;;;;;;;;;;6100891;23;20006;-71
2022/01/10 02:32:34;;;;;;;74.45;38.10;;;;;;;;;;6126746;23;20005;-71
2022/01/10 02:34:59;;;;;;;70.78;35.90;;;;;;;;;;6100782;23;20013;-71
2022/01/10 02:37:29;;;;;;;76.30;35.38;;;;;;;;;;6101162;23;20311;-71
2022/01/10 02:39:55;;;;;;;74.28;36.92;;;;;;;;;;6126692;23;20005;-69
2022/01/10 02:42:21;;;;;;;78.95;40.25;;;;;;;;;;6100934;23;20017;-69
2022/01/10 02:44:46;;;;;;;80.57;40.83;;;;;;;;;;6100643;23;20002;-68
2022/01/10 02:47:12;;;;;;;82.35;38.88;;;;;;;;;;6100730;23;20006;-68
2022/01/10 02:49:38;;;;;;;66.35;35.20;;;;;;;;;;6126522;23;20002;-68
2022/01/10 02:52:03;;;;;;;65.85;33.95;;;;;;;;;;6100835;23;20010;-67
2022/01/10 02:54:30;;;;;;;65.07;33.03;;;;;;;;;;6101172;23;20005;-67
2022/01/10 02:56:58;;;;;;;70.38;35.03;;;;;;;;;;6100594;23;20006;-67
2022/01/10 02:59:24;;;;;;;64.65;33.15;;;;;;;;;;6100032;23;20280;-68
2022/01/10 03:01:50;;;;;;;64.63;34.25;;;;;;;;;;6100745;23;20014;-68
2022/01/10 03:04:16;;;;;;;70.80;33.88;;;;;;;;;;6100809;23;20002;-67
2022/01/10 03:06:43;;;;;;;65.75;34.22;;;;;;;;;;6100615;23;20370;-68
2022/01/10 03:09:09;;;;;;;67.85;36.10;;;;;;;;;;6076443;23;20002;-71
2022/01/10 03:11:35;;;;;;;66.85;35.15;;;;;;;;;;6100712;23;20017;-71
2022/01/10 03:14:01;;;;;;;72.47;37.30;;;;;;;;;;6100834;23;20002;-71
2022/01/10 03:16:26;;;;;;;69.40;34.80;;;;;;;;;;6100880;23;20037;-71
2022/01/10 03:18:52;;;;;;;68.82;33.55;;;;;;;;;;6126811;23;20060;-71
2022/01/10 03:21:20;;;;;;;61.72;32.90;;;;;;;;;;6126349;23;20010;-71
2022/01/10 03:23:51;;;;;;;66.25;34.03;;;;;;;;;;6126517;23;19994;-71
2022/01/10 03:26:18;;;;;;;62.42;33.67;;;;;;;;;;6100962;23;20017;-71
2022/01/10 03:28:45;;;;;;;67.72;33.60;;;;;;;;;;6120139;23;20316;-70
2022/01/10 03:31:11;;;;;;;70.43;35.20;;;;;;;;;;6124843;23;20394;-71
2022/01/10 03:33:36;;;;;;;65.20;34.75;;;;;;;;;;6125229;23;20037;-70
2022/01/10 03:36:03;;;;;;;62.50;34.17;;;;;;;;;;6125123;23;20006;-70
2022/01/10 03:38:29;;;;;;;66.75;34.35;;;;;;;;;;6126612;23;20005;-70
2022/01/10 03:40:55;;;;;;;70.63;35.20;;;;;;;;;;6100513;23;20017;-70
2022/01/10 03:43:23;;;;;;;67.80;34.90;;;;;;;;;;6124972;23;20080;-70
2022/01/10 03:45:49;;;;;;;62.75;33.03;;;;;;;;;;6125028;23;20084;-71
2022/01/10 03:48:16;;;;;;;66.82;34.85;;;;;;;;;;6124838;23;20422;-70
2022/01/10 03:50:42;;;;;;;66.28;33.08;;;;;;;;;;6125080;23;20300;-71
2022/01/10 03:53:08;;;;;;;64.18;33.33;;;;;;;;;;6125245;23;19994;-71
2022/01/10 03:55:34;;;;;;;59.97;31.48;;;;;;;;;;6124320;23;20002;-71
2022/01/10 03:58:02;;;;;;;61.03;32.55;;;;;;;;;;6124744;23;20001;-71
2022/01/10 04:00:28;;;;;;;60.60;31.08;;;;;;;;;;6124906;23;20056;-66
2022/01/10 04:02:59;;;;;;;62.20;32.38;;;;;;;;;;6126751;23;20446;-68
2022/01/10 04:05:29;;;;;;;61.15;32.17;;;;;;;;;;6125087;23;20006;-68
2022/01/10 04:07:55;;;;;;;60.97;32.50;;;;;;;;;;6124665;23;20013;-70
2022/01/10 04:10:21;;;;;;;59.33;30.98;;;;;;;;;;6124887;23;20057;-69
2022/01/10 04:12:46;;;;;;;57.83;30.92;;;;;;;;;;6124813;23;20010;-69
2022/01/10 04:15:12;;;;;;;59.08;31.45;;;;;;;;;;6125251;23;20096;-69
2022/01/10 04:17:37;;;;;;;60.42;33.33;;;;;;;;;;6128185;23;20370;-71
2022/01/10 04:20:04;;;;;;;57.35;30.42;;;;;;;;;;6126870;23;20097;-72
2022/01/10 04:22:30;;;;;;;56.58;30.85;;;;;;;;;;6126720;23;20008;-72
2022/01/10 04:24:55;;;;;;;56.97;31.95;;;;;;;;;;6126434;23;20089;-72
2022/01/10 04:27:21;;;;;;;57.70;31.02;;;;;;;;;;6125353;23;20014;-72
2022/01/10 04:29:47;;;;;;;53.28;29.85;;;;;;;;;;6102444;23;20018;-72
2022/01/10 04:32:13;;;;;;;53.03;30.02;;;;;;;;;;6102007;23;20013;-71
2022/01/10 04:34:39;;;;;;;53.25;30.42;;;;;;;;;;6101956;23;20010;-72
2022/01/10 04:37:06;;;;;;;53.75;30.52;;;;;;;;;;6102231;23;20395;-72
2022/01/10 04:39:32;;;;;;;55.47;30.55;;;;;;;;;;6128131;23;20010;-72
2022/01/10 04:41:57;;;;;;;53.50;30.40;;;;;;;;;;6078272;23;20085;-71
2022/01/10 04:44:24;;;;;;;53.25;30.27;;;;;;;;;;6101964;23;20002;-72
2022/01/10 04:46:51;;;;;;;64.35;34.58;;;;;;;;;;6102098;23;20001;-70
2022/01/10 04:49:24;;;;;;;70.43;37.58;;;;;;;;;;6101622;23;20006;-70
2022/01/10 04:51:50;;;;;;;76.57;39.53;;;;;;;;;;6101924;23;20010;-70
2022/01/10 04:54:16;;;;;;;65.05;34.83;;;;;;;;;;6102003;23;20002;-70
2022/01/10 04:56:42;;;;;;;76.35;37.03;;;;;;;;;;6102000;23;20006;-70
2022/01/10 04:59:07;;;;;;;71.15;36.92;;;;;;;;;;6102101;23;20002;-68
2022/01/10 05:01:33;;;;;;;77.65;39.65;;;;;;;;;;6102042;23;20029;-69
2022/01/10 05:04:00;;;;;;;75.47;39.83;;;;;;;;;;6101785;23;20025;-69
2022/01/10 05:06:25;;;;;;;56.10;31.48;;;;;;;;;;6101978;23;20001;-69
2022/01/10 05:08:52;;;;;;;74.03;37.63;;;;;;;;;;6101936;23;20052;-74
2022/01/10 05:11:33;;;;;;;78.07;39.20;;;;;;;;;;6101839;23;20013;-67
2022/01/10 05:13:59;;;;;;;84.53;42.40;;;;;;;;;;6101735;23;20016;-67
2022/01/10 05:16:24;;;;;;;87.40;42.05;;;;;;;;;;6101405;23;20006;-71
2022/01/10 05:18:50;;;;;;;86.53;43.20;;;;;;;;;;6127403;23;20390;-72
2022/01/10 05:21:17;;;;;;;61.30;33.72;;;;;;;;;;6101138;23;20053;-72
2022/01/10 05:23:43;;;;;;;51.22;29.55;;;;;;;;;;6127390;23;20339;-72
2022/01/10 05:26:08;;;;;;;53.70;28.67;;;;;;;;;;6101339;23;19994;-73
2022/01/10 05:28:37;;;;;;;50.13;28.38;;;;;;;;;;6112887;23;20021;-74
2022/01/10 05:31:02;;;;;;;46.33;27.67;;;;;;;;;;6125792;23;20013;-73
2022/01/10 05:33:35;;;;;;;47.10;27.95;;;;;;;;;;6125774;23;20013;-73
2022/01/10 05:36:01;;;;;;;46.03;29.33;;;;;;;;;;6125819;23;20331;-72
2022/01/10 05:38:26;;;;;;;49.95;29.50;;;;;;;;;;6127320;23;20006;-73
2022/01/10 05:40:52;;;;;;;53.90;33.53;;;;;;;;;;6127321;23;20006;-72
2022/01/10 05:43:18;;;;;;;51.03;30.98;;;;;;;;;;6125746;23;20001;-72
2022/01/10 05:45:46;;;;;;;53.40;31.25;;;;;;;;;;6125906;23;20426;-72
2022/01/10 05:48:20;;;;;;;54.50;32.58;;;;;;;;;;6125766;23;20005;-71
2022/01/10 05:50:46;;;;;;;58.53;32.80;;;;;;;;;;6125533;23;20006;-71
2022/01/10 05:53:11;;;;;;;52.10;33.17;;;;;;;;;;6125648;23;20025;-71
2022/01/10 05:55:37;;;;;;;55.45;33.33;;;;;;;;;;6125532;23;20006;-71
2022/01/10 05:58:04;;;;;;;58.95;33.45;;;;;;;;;;6125500;23;19998;-72
2022/01/10 06:00:30;;;;;;;56.55;33.38;;;;;;;;;;6125278;23;20006;-72
2022/01/10 06:02:56;;;;;;;81.97;45.92;;;;;;;;;;6126895;23;20415;-72
2022/01/10 06:05:31;;;;;;;68.32;42.80;;;;;;;;;;6125329;23;20001;-72
2022/01/10 06:08:02;;;;;;;67.03;46.30;;;;;;;;;;6125345;23;20342;-73
2022/01/10 06:10:29;;;;;;;63.83;39.08;;;;;;;;;;6125239;23;20017;-72
2022/01/10 06:13:00;;;;;;;61.50;39.58;;;;;;;;;;6125338;23;19998;-72
2022/01/10 06:15:27;;;;;;;61.00;40.25;;;;;;;;;;6125350;23;20024;-73
2022/01/10 06:17:52;;;;;;;64.30;41.17;;;;;;;;;;6125335;23;20002;-72
2022/01/10 06:20:18;;;;;;;61.85;36.90;;;;;;;;;;6125179;23;20097;-73
2022/01/10 06:22:44;;;;;;;64.97;43.47;;;;;;;;;;6126607;23;19997;-72
2022/01/10 06:25:14;;;;;;;60.55;38.08;;;;;;;;;;6125237;23;20446;-72
2022/01/10 06:27:39;;;;;;;81.82;41.60;;;;;;;;;;6126378;23;20017;-73
2022/01/10 06:30:06;;;;;;;100.88;51.65;;;;;;;;;;6100756;23;20037;-72
2022/01/10 06:32:35;;;;;;;73.15;42.53;;;;;;;;;;6100725;23;20438;-72
2022/01/10 06:35:01;;;;;;;56.50;36.00;;;;;;;;;;6100505;23;20088;-72
2022/01/10 06:37:26;;;;;;;62.40;37.72;;;;;;;;;;6126460;23;20331;-72
2022/01/10 06:39:52;;;;;;;65.18;39.55;;;;;;;;;;6100240;23;20084;-72
2022/01/10 06:42:18;;;;;;;58.72;38.03;;;;;;;;;;6100501;23;20481;-72
2022/01/10 06:44:43;;;;;;;66.13;40.33;;;;;;;;;;6126367;23;20002;-72
2022/01/10 06:47:12;;;;;;;65.78;40.45;;;;;;;;;;6100333;23;20414;-72
2022/01/10 06:49:38;;;;;;;62.35;38.10;;;;;;;;;;6100477;23;20043;-72
2022/01/10 06:52:04;;;;;;;57.97;36.67;;;;;;;;;;6100546;23;19998;-72
2022/01/10 06:54:30;;;;;;;59.30;35.67;;;;;;;;;;6100534;23;20014;-72
2022/01/10 06:56:58;;;;;;;58.33;33.83;;;;;;;;;;6100143;23;20006;-72
2022/01/10 06:59:25;;;;;;;57.20;35.33;;;;;;;;;;6100400;23;20080;-72
2022/01/10 07:01:53;;;;;;;57.60;36.67;;;;;;;;;;6100177;23;20013;-72
2022/01/10 07:04:19;;;;;;;58.28;35.78;;;;;;;;;;6100244;23;20010;-72
2022/01/10 07:06:44;;;;;;;53.55;34.25;;;;;;;;;;6100434;23;20418;-72
2022/01/10 07:09:18;;;;;;;61.97;39.05;;;;;;;;;;6100520;23;20014;-72
2022/01/10 07:11:56;;;;;;;59.97;36.90;;;;;;;;;;6100485;23;20036;-72
2022/01/10 07:14:22;;;;;;;56.30;35.33;;;;;;;;;;6100484;23;20449;-72
2022/01/10 07:16:50;;;;;;;55.80;34.60;;;;;;;;;;6100451;23;20426;-72
2022/01/10 07:19:17;;;;;;;60.28;37.50;;;;;;;;;;6100347;23;20085;-72
2022/01/10 07:21:43;;;;;;;60.55;36.30;;;;;;;;;;6100171;23;20481;-72
2022/01/10 07:24:11;;;;;;;55.03;32.97;;;;;;;;;;6100141;23;20006;-72
2022/01/10 07:26:36;;;;;;;62.80;37.83;;;;;;;;;;6126180;23;20036;-72
2022/01/10 07:29:03;;;;;;;57.15;34.97;;;;;;;;;;6125557;23;20021;-72
2022/01/10 07:31:29;;;;;;;55.97;31.77;;;;;;;;;;6100321;23;20032;-72
2022/01/10 07:33:55;;;;;;;124.78;67.72;;;;;;;;;;6126389;23;20430;-73
2022/01/10 07:36:21;;;;;;;235.35;103.15;;;;;;;;;;6126686;23;20085;-71
2022/01/10 07:38:46;;;;;;;126.55;62.03;;;;;;;;;;6126479;23;20029;-72
2022/01/10 07:41:12;;;;;;;98.00;47.40;;;;;;;;;;6100391;23;20006;-71
2022/01/10 07:43:38;;;;;;;223.35;149.00;;;;;;;;;;6126389;23;20009;-79
2022/01/10 07:46:05;;;;;;;64.00;36.95;;;;;;;;;;6126328;23;20415;-72
2022/01/10 07:48:32;;;;;;;60.78;37.38;;;;;;;;;;6126292;23;19994;-71
2022/01/10 07:50:57;;;;;;;66.43;42.08;;;;;;;;;;6127760;23;20013;-72
2022/01/10 07:53:23;;;;;;;60.58;36.42;;;;;;;;;;6128273;23;20005;-71
2022/01/10 07:55:48;;;;;;;54.50;33.30;;;;;;;;;;6128498;23;20057;-71
2022/01/10 07:58:14;;;;;;;57.30;36.30;;;;;;;;;;6127983;23;20486;-71
2022/01/10 08:00:40;;;;;;;53.40;31.92;;;;;;;;;;6127807;23;20006;-71
2022/01/10 08:03:05;;;;;;;57.05;35.40;;;;;;;;;;6128019;23;20025;-71
2022/01/10 08:05:30;;;;;;;58.65;36.78;;;;;;;;;;6127866;23;20434;-71
2022/01/10 08:07:56;;;;;;;57.85;36.25;;;;;;;;;;6101843;23;20326;-71
2022/01/10 08:10:21;;;;;;;58.47;36.72;;;;;;;;;;6127707;23;20006;-71
2022/01/10 08:12:47;;;;;;;56.20;35.33;;;;;;;;;;6127792;23;20085;-71
2022/01/10 08:15:12;;;;;;;61.90;36.15;;;;;;;;;;6128184;23;20006;-71
2022/01/10 08:17:38;;;;;;;68.30;41.80;;;;;;;;;;6127788;23;20414;-72
2022/01/10 08:20:05;;;;;;;65.82;39.58;;;;;;;;;;6128062;23;20066;-71
2022/01/10 08:22:31;;;;;;;63.97;39.50;;;;;;;;;;6128412;23;20009;-71
2022/01/10 08:24:56;;;;;;;71.63;45.05;;;;;;;;;;6128642;23;20080;-71
2022/01/10 08:27:21;;;;;;;63.45;40.33;;;;;;;;;;6127853;23;20093;-71
2022/01/10 08:29:48;;;;;;;67.07;41.63;;;;;;;;;;6127901;23;20097;-73
2022/01/10 08:32:14;;;;;;;77.20;42.53;;;;;;;;;;6127900;23;20060;-72
2022/01/10 08:34:39;;;;;;;112.38;69.55;;;;;;;;;;6127649;23;20379;-72
2022/01/10 08:37:05;;;;;;;90.78;52.72;;;;;;;;;;6127764;23;20057;-70
2022/01/10 08:39:30;;;;;;;92.20;56.85;;;;;;;;;;6127601;23;20119;-70
2022/01/10 08:41:55;;;;;;;58.90;34.45;;;;;;;;;;6101805;23;20429;-70
2022/01/10 08:44:21;;;;;;;95.00;60.35;;;;;;;;;;6127606;23;20010;-70
2022/01/10 08:46:46;;;;;;;56.20;33.00;;;;;;;;;;6101808;23;20002;-71
2022/01/10 08:49:12;;;;;;;57.40;34.30;;;;;;;;;;6127500;23;20002;-70
2022/01/10 08:51:39;;;;;;;48.83;32.33;;;;;;;;;;6127447;23;20002;-70
2022/01/10 08:54:05;;;;;;;41.13;25.52;;;;;;;;;;6127497;23;20038;-70
2022/01/10 08:56:32;;;;;;;37.45;23.65;;;;;;;;;;6127387;23;20053;-70
2022/01/10 08:58:58;;;;;;;45.05;29.45;;;;;;;;;;6127640;23;20048;-70
2022/01/10 09:01:24;;;;;;;48.45;29.15;;;;;;;;;;6126961;23;19998;-70
2022/01/10 09:03:49;;;;;;;43.67;26.67;;;;;;;;;;6127406;23;20057;-70
2022/01/10 09:06:15;;;;;;;41.72;23.55;;;;;;;;;;6127360;23;20021;-70
2022/01/10 09:08:41;;;;;;;41.55;26.30;;;;;;;;;;6127329;23;20006;-70
2022/01/10 09:11:06;;;;;;;43.22;25.15;;;;;;;;;;6127107;23;20029;-70
2022/01/10 09:13:32;;;;;;;33.78;21.00;;;;;;;;;;6127319;23;20438;-70
2022/01/10 09:15:58;;;;;;;39.13;26.48;;;;;;;;;;6127389;23;20026;-70
2022/01/10 09:18:23;;;;;;;36.58;21.35;;;;;;;;;;6127509;23;20371;-70
2022/01/10 09:20:50;;;;;;;35.65;21.65;;;;;;;;;;6127337;23;20445;-70
2022/01/10 09:23:16;;;;;;;34.83;22.08;;;;;;;;;;6126870;23;20106;-70
2022/01/10 09:25:41;;;;;;;35.08;21.35;;;;;;;;;;6127312;23;19998;-70
2022/01/10 09:28:07;;;;;;;36.83;23.75;;;;;;;;;;6126565;23;20431;-64
2022/01/10 09:30:32;;;;;;;30.10;16.42;;;;;;;;;;6127308;23;20430;-64
2022/01/10 09:32:58;;;;;;;37.05;22.63;;;;;;;;;;6101277;23;20055;-64
2022/01/10 09:35:23;;;;;;;41.88;26.08;;;;;;;;;;6127344;23;20029;-64
2022/01/10 09:37:49;;;;;;;35.22;20.13;;;;;;;;;;6127112;23;20005;-67
2022/01/10 09:40:14;;;;;;;34.78;20.58;;;;;;;;;;6127073;23;20052;-64
2022/01/10 09:42:40;;;;;;;36.63;23.48;;;;;;;;;;6127027;23;20434;-64
2022/01/10 09:45:06;;;;;;;38.25;24.10;;;;;;;;;;6127163;23;20002;-64
2022/01/10 09:47:32;;;;;;;127.82;63.80;;;;;;;;;;6126867;23;20006;-64
2022/01/10 09:49:58;;;;;;;192.85;107.45;;;;;;;;;;6126880;23;20097;-65
2022/01/10 09:52:23;;;;;;;149.85;93.85;;;;;;;;;;6126956;23;20006;-65
2022/01/10 09:54:50;;;;;;;41.38;24.80;;;;;;;;;;6126854;23;19998;-65
2022/01/10 09:57:16;;;;;;;97.90;74.80;;;;;;;;;;6127016;23;20010;-65
2022/01/10 09:59:42;;;;;;;88.65;54.40;;;;;;;;;;6126897;23;20002;-65
2022/01/10 10:02:08;;;;;;;83.10;55.22;;;;;;;;;;6126704;23;20006;-65
2022/01/10 10:04:37;;;;;;;115.80;68.57;;;;;;;;;;6100952;23;19998;-65
2022/01/10 10:07:06;;;;;;;146.73;92.18;;;;;;;;;;6126792;23;20008;-64
2022/01/10 10:09:32;;;;;;;81.43;54.03;;;;;;;;;;6126680;23;20049;-65
2022/01/10 10:11:58;;;;;;;58.92;40.80;;;;;;;;;;6126649;23;20017;-65
2022/01/10 10:14:23;;;;;;;46.95;35.55;;;;;;;;;;6126600;23;19998;-65
2022/01/10 10:16:50;;;;;;;61.78;40.05;;;;;;;;;;6100290;23;20006;-65
2022/01/10 10:19:16;;;;;;;35.63;23.77;;;;;;;;;;6126998;23;20319;-65
2022/01/10 10:21:42;;;;;;;34.28;24.75;;;;;;;;;;6126518;23;20006;-65
2022/01/10 10:24:07;;;;;;;31.95;23.10;;;;;;;;;;6126965;23;20005;-65
2022/01/10 10:26:33;;;;;;;44.42;37.45;;;;;;;;;;6101014;23;20057;-65
2022/01/10 10:28:59;;;;;;;39.85;33.20;;;;;;;;;;6126310;23;20017;-65
2022/01/10 10:31:26;;;;;;;24.33;15.55;;;;;;;;;;6126984;23;20016;-65
2022/01/10 10:33:53;;;;;;;26.70;18.20;;;;;;;;;;6123218;23;20088;-65
2022/01/10 10:36:18;;;;;;;39.47;24.67;;;;;;;;;;6100570;23;20333;-65
2022/01/10 10:38:44;;;;;;;29.95;19.92;;;;;;;;;;6126440;23;20004;-65
2022/01/10 10:41:11;;;;;;;48.38;26.13;;;;;;;;;;6126453;23;20017;-65
2022/01/10 10:43:37;;;;;;;50.10;26.10;;;;;;;;;;6126543;23;20051;-65
2022/01/10 10:46:03;;;;;;;27.95;18.40;;;;;;;;;;6100490;23;20342;-65
2022/01/10 10:48:30;;;;;;;26.80;17.42;;;;;;;;;;6126529;23;19997;-65
2022/01/10 10:50:57;;;;;;;109.10;60.58;;;;;;;;;;6100660;23;20002;-65
2022/01/10 10:53:25;;;;;;;32.05;20.45;;;;;;;;;;6126450;23;20028;-65
2022/01/10 10:55:51;;;;;;;29.60;23.63;;;;;;;;;;6126373;23;20007;-65
2022/01/10 10:58:16;;;;;;;20.73;16.27;;;;;;;;;;6126520;23;20049;-65
2022/01/10 11:00:42;;;;;;;25.00;19.80;;;;;;;;;;6100616;23;20013;-65
2022/01/10 11:03:09;;;;;;;22.35;14.13;;;;;;;;;;6126563;23;20053;-65
2022/01/10 11:05:35;;;;;;;27.10;16.50;;;;;;;;;;6126349;23;20006;-65
2022/01/10 11:08:00;;;;;;;92.18;52.78;;;;;;;;;;6126408;23;20009;-65
2022/01/10 11:10:26;;;;;;;17.38;13.07;;;;;;;;;;6126480;23;20408;-65
2022/01/10 11:12:55;;;;;;;143.80;83.60;;;;;;;;;;6100152;23;20030;-67
2022/01/10 11:15:24;;;;;;;71.60;51.40;;;;;;;;;;6126583;23;20093;-65
2022/01/10 11:17:51;;;;;;;18.05;13.65;;;;;;;;;;6126180;23;20448;-64
2022/01/10 11:20:21;;;;;;;30.92;24.27;;;;;;;;;;6126262;23;20064;-65
2022/01/10 11:22:47;;;;;;;32.15;19.33;;;;;;;;;;6100453;23;20022;-65
2022/01/10 11:25:29;;;;;;;28.45;17.65;;;;;;;;;;6125941;23;20009;-64
2022/01/10 11:28:00;;;;;;;18.13;12.23;;;;;;;;;;6126010;23;20013;-65
2022/01/10 11:30:32;;;;;;;22.52;14.38;;;;;;;;;;6127042;23;20016;-65
2022/01/10 11:33:01;;;;;;;14.70;10.45;;;;;;;;;;6126556;23;20020;-66
2022/01/10 11:35:28;;;;;;;14.68;11.32;;;;;;;;;;6126639;23;19998;-65
2022/01/10 11:37:54;;;;;;;19.13;13.25;;;;;;;;;;6100717;23;20006;-66
2022/01/10 11:40:19;;;;;;;20.13;14.02;;;;;;;;;;6126755;23;20009;-66
2022/01/10 11:42:46;;;;;;;20.88;15.13;;;;;;;;;;6100316;23;20076;-66
2022/01/10 11:45:12;;;;;;;16.10;11.35;;;;;;;;;;6126216;23;19998;-66
2022/01/10 11:47:56;;;;;;;16.15;11.75;;;;;;;;;;6126050;23;20359;-66
2022/01/10 11:50:26;;;;;;;18.88;14.18;;;;;;;;;;6126256;23;20006;-66
2022/01/10 11:52:56;;;;;;;19.05;12.73;;;;;;;;;;6100341;23;20097;-66
2022/01/10 11:55:31;;;;;;;14.32;12.30;;;;;;;;;;6126085;23;20006;-66
2022/01/10 11:58:13;;;;;;;26.33;16.73;;;;;;;;;;6126181;23;20052;-65
2022/01/10 12:00:38;;;;;;;18.30;13.88;;;;;;;;;;6100228;23;20009;-66
2022/01/10 12:03:04;;;;;;;29.98;18.45;;;;;;;;;;6125809;23;20081;-66
2022/01/10 12:05:30;;;;;;;36.88;25.67;;;;;;;;;;6100248;23;20002;-66
2022/01/10 12:07:55;;;;;;;129.95;92.07;;;;;;;;;;6126145;23;20001;-66
2022/01/10 12:10:21;;;;;;;211.55;184.02;;;;;;;;;;6126023;23;20006;-66
2022/01/10 12:12:50;;;;;;;118.50;86.00;;;;;;;;;;6126156;23;20081;-66
2022/01/10 12:15:16;;;;;;;58.67;49.58;;;;;;;;;;6126095;23;20382;-66
2022/01/10 12:17:41;;;;;;;92.43;62.35;;;;;;;;;;6125990;23;19998;-66
2022/01/10 12:20:08;;;;;;;56.70;34.08;;;;;;;;;;6100159;23;20010;-66
2022/01/10 12:22:34;;;;;;;56.30;41.45;;;;;;;;;;6125986;23;20002;-66
2022/01/10 12:25:00;;;;;;;24.15;17.05;;;;;;;;;;6125918;23;20382;-66
2022/01/10 12:27:26;;;;;;;19.65;14.45;;;;;;;;;;6100222;23;20418;-66
2022/01/10 12:29:52;;;;;;;14.82;11.43;;;;;;;;;;6125766;23;20009;-66
2022/01/10 12:32:17;;;;;;;14.30;10.65;;;;;;;;;;6125832;23;20413;-66
2022/01/10 12:34:45;;;;;;;28.95;19.23;;;;;;;;;;6125772;23;20012;-66
2022/01/10 12:37:10;;;;;;;59.97;36.13;;;;;;;;;;6126534;23;20049;-66
2022/01/10 12:39:37;;;;;;;38.45;23.08;;;;;;;;;;6127781;23;20010;-66
2022/01/10 12:42:03;;;;;;;30.42;21.25;;;;;;;;;;6127785;23;20322;-66
2022/01/10 12:44:28;;;;;;;23.63;16.80;;;;;;;;;;6127872;23;20029;-66
2022/01/10 12:46:54;;;;;;;123.78;50.78;;;;;;;;;;6127994;23;20002;-66
2022/01/10 12:49:21;;;;;;;154.23;66.70;;;;;;;;;;6127817;23;20025;-66
2022/01/10 12:51:48;;;;;;;89.75;36.65;;;;;;;;;;6127900;23;20002;-66
2022/01/10 12:54:15;;;;;;;57.72;23.80;;;;;;;;;;6102056;23;20010;-66
2022/01/10 12:56:40;;;;;;;68.80;28.75;;;;;;;;;;6127239;23;20411;-66
2022/01/10 12:59:06;;;;;;;129.70;62.00;;;;;;;;;;6127523;23;20006;-66
2022/01/10 13:01:31;;;;;;;426.55;284.80;;;;;;;;;;6101522;23;20390;-66
2022/01/10 13:03:59;;;;;;;45.20;22.58;;;;;;;;;;6126951;23;20010;-65
2022/01/10 13:06:30;;;;;;;53.95;37.45;;;;;;;;;;6127452;23;20002;-66
2022/01/10 13:08:55;;;;;;;127.63;59.85;;;;;;;;;;6126218;23;20002;-66
2022/01/10 13:11:23;;;;;;;338.30;159.02;;;;;;;;;;6126522;23;20005;-66
2022/01/10 13:13:49;;;;;;;205.48;84.88;;;;;;;;;;6126577;23;20017;-66
2022/01/10 13:16:27;;;;;;;42.45;23.50;;;;;;;;;;6126601;23;20427;-66
2022/01/10 13:19:00;;;;;;;60.53;24.60;;;;;;;;;;6126592;23;20010;-66
2022/01/10 13:21:26;;;;;;;28.63;22.08;;;;;;;;;;6126499;23;20426;-66
2022/01/10 13:24:05;;;;;;;139.93;78.82;;;;;;;;;;6126926;23;20073;-66
2022/01/10 13:26:30;;;;;;;37.05;22.23;;;;;;;;;;6127265;23;20009;-66
2022/01/10 13:28:56;;;;;;;58.47;35.95;;;;;;;;;;6126380;23;20010;-66
2022/01/10 13:31:33;;;;;;;35.22;24.02;;;;;;;;;;6127216;23;20462;-66
2022/01/10 13:33:59;;;;;;;32.88;22.58;;;;;;;;;;6127321;23;20017;-66
2022/01/10 13:36:24;;;;;;;29.48;18.15;;;;;;;;;;6127025;23;20319;-66
2022/01/10 13:38:50;;;;;;;72.28;44.28;;;;;;;;;;6127033;23;20010;-66
2022/01/10 13:41:15;;;;;;;129.98;80.18;;;;;;;;;;6126935;23;20336;-66
2022/01/10 13:43:41;;;;;;;36.33;32.42;;;;;;;;;;6126583;23;20010;-66
2022/01/10 13:46:15;;;;;;;33.53;23.02;;;;;;;;;;6127335;23;20048;-70
2022/01/10 13:48:41;;;;;;;30.27;24.95;;;;;;;;;;6127102;23;20002;-70
2022/01/10 13:51:15;;;;;;;25.33;18.50;;;;;;;;;;6101214;23;20085;-70
2022/01/10 13:53:43;;;;;;;22.73;16.92;;;;;;;;;;6127497;23;20006;-70
2022/01/10 13:56:10;;;;;;;21.15;15.35;;;;;;;;;;6126491;23;20021;-70
2022/01/10 13:58:36;;;;;;;53.65;34.08;;;;;;;;;;6100625;23;20060;-70
2022/01/10 14:01:03;;;;;;;67.82;44.22;;;;;;;;;;6126551;23;20001;-70
2022/01/10 14:03:32;;;;;;;87.45;53.10;;;;;;;;;;6126793;23;20033;-70
2022/01/10 14:06:08;;;;;;;316.48;202.18;;;;;;;;;;6126919;23;20048;-70
2022/01/10 14:08:34;;;;;;;419.08;308.38;;;;;;;;;;6127018;23;20014;-70
2022/01/10 14:11:03;;;;;;;87.40;54.83;;;;;;;;;;6127039;23;20149;-70
2022/01/10 14:13:28;;;;;;;45.05;27.15;;;;;;;;;;6100984;23;20303;-70
2022/01/10 14:15:54;;;;;;;22.60;15.88;;;;;;;;;;6126865;23;19994;-70
2022/01/10 14:18:19;;;;;;;37.00;25.17;;;;;;;;;;6126642;23;20081;-70
2022/01/10 14:20:45;;;;;;;177.63;68.57;;;;;;;;;;6100849;23;20068;-70